La Manga del Mar Menor, Spain
Current Conditions -  °F | °C
As of 7:00 AM on Wednesday 26 Nov 2014 (Local Time) from LELC Reporting Station
Few Clouds Few Clouds  
Wind Chill: 59°   Ceiling: Unl
Heat Index: 59°   Visibility: 6mi
Dew Point: 57°   Wind: 0mph
Humidity: 94%   Direction: NA
Pressure: 29.91"   Gusts: NA
Location:  37.64°N, 0.72°W
Report Text: LELC 260600Z 00000KT 9999 FEW025 15/14 Q1013 RERA NOSIG
Loading
Personal Weather Stations






























Interactive Weather Map New forecast layout! Learn more

10-Day Weather Forecast

Advertisements
Track Severe Weather on mobile